Time;durP1;ratioP1;P1;durP2;ratioP2;P2;SDS_P1;SDS_P2;PMS_P1;PMS_P2;Temp;Humidity;BMP_temperature;BMP_pressure;BME280_temperature;BME280_humidity;BME280_pressure;Samples;Min_cycle;Max_cycle;Signal;HPM_P1;HPM_P2
2022/10/18 00:01:46;;;;;;;138.93;58.95;;;;;;;14.34;100.00;68361.28;4923961;29;20518;-77
2022/10/18 00:04:12;;;;;;;125.18;55.10;;;;;;;14.38;100.00;68365.81;4911306;29;20140;-78
2022/10/18 00:06:37;;;;;;;121.15;54.72;;;;;;;14.41;100.00;68369.22;4910252;29;20139;-76
2022/10/18 00:09:03;;;;;;;126.45;52.60;;;;;;;14.43;100.00;68371.53;4917052;29;20561;-76
2022/10/18 00:11:28;;;;;;;133.30;52.40;;;;;;;14.43;100.00;68368.84;4912649;29;20110;-75
2022/10/18 00:13:55;;;;;;;142.32;56.58;;;;;;;14.45;100.00;68373.81;4909620;29;20040;-78
2022/10/18 00:16:20;;;;;;;131.27;58.08;;;;;;;14.48;100.00;68371.28;4915417;29;20048;-78
2022/10/18 00:18:47;;;;;;;146.30;62.67;;;;;;;14.52;100.00;68381.78;4905868;29;20126;-74
2022/10/18 00:21:17;;;;;;;155.95;58.90;;;;;;;14.53;100.00;68377.00;4911457;29;20389;-77
2022/10/18 00:23:44;;;;;;;163.05;66.32;;;;;;;14.53;100.00;68380.25;4907341;29;20127;-78
2022/10/18 00:26:13;;;;;;;159.77;62.60;;;;;;;14.52;100.00;68376.41;4913863;29;20136;-78
2022/10/18 00:28:39;;;;;;;155.57;67.10;;;;;;;14.52;100.00;68379.09;4916651;29;20507;-76
2022/10/18 00:31:11;;;;;;;152.00;63.88;;;;;;;14.54;100.00;68381.38;4902822;29;20404;-77
2022/10/18 00:33:37;;;;;;;165.95;62.95;;;;;;;14.54;100.00;68383.50;4924567;29;20091;-78
2022/10/18 00:36:02;;;;;;;144.27;63.83;;;;;;;;;;4916525;29;20039;-79
2022/10/18 00:38:28;;;;;;;142.77;56.08;;;;;;;14.50;100.00;68379.50;4924246;29;20048;-77
2022/10/18 00:40:53;;;;;;;140.32;62.20;;;;;;;14.53;100.00;68380.25;4915755;29;20079;-77
2022/10/18 00:43:18;;;;;;;138.85;59.95;;;;;;;14.53;100.00;68380.25;4919082;29;20035;-77
2022/10/18 00:45:44;;;;;;;142.55;60.28;;;;;;;14.56;100.00;68383.66;4918323;29;20051;-78
2022/10/18 00:48:12;;;;;;;131.55;57.30;;;;;;;14.61;100.00;68392.03;4911941;29;20040;-78
2022/10/18 00:50:39;;;;;;;131.57;52.67;;;;;;;14.61;100.00;68389.34;4930288;29;20408;-78
2022/10/18 00:53:11;;;;;;;116.60;54.38;;;;;;;14.61;100.00;68388.78;4908555;29;121781;-77
2022/10/18 00:55:37;;;;;;;119.15;53.80;;;;;;;14.61;100.00;68389.34;4908312;29;20043;-76
2022/10/18 00:58:04;;;;;;;125.80;53.15;;;;;;;14.59;100.00;68387.09;4910837;29;20622;-78
2022/10/18 01:00:30;;;;;;;122.78;53.63;;;;;;;14.60;100.00;68388.22;4909265;29;20102;-77
2022/10/18 01:02:57;;;;;;;130.02;54.17;;;;;;;14.57;100.00;68381.56;4916119;29;20495;-75
2022/10/18 01:05:24;;;;;;;122.75;51.70;;;;;;;14.46;100.00;68372.25;4909899;29;20071;-79
2022/10/18 01:07:49;;;;;;;127.25;53.38;;;;;;;;;;4907616;29;20517;-78
2022/10/18 01:10:18;;;;;;;170.10;57.83;;;;;;;;;;4919537;29;20052;-77
2022/10/18 01:12:43;;;;;;;213.80;54.03;;;;;;;;;;4918059;29;20044;-76
2022/10/18 01:15:22;;;;;;;123.87;49.90;;;;;;;14.27;100.00;68348.53;4915255;29;20445;-79
2022/10/18 01:18:10;;;;;;;152.23;54.05;;;;;;;14.23;100.00;68347.22;4914143;29;21042;-78
2022/10/18 01:21:01;;;;;;;159.48;53.13;;;;;;;14.18;100.00;68344.22;4923569;29;20075;-77
2022/10/18 01:23:26;;;;;;;149.90;55.50;;;;;;;14.10;100.00;68335.09;4926351;29;20488;-78
2022/10/18 01:26:10;;;;;;;158.20;55.88;;;;;;;14.08;100.00;68332.81;4912909;29;20052;-77
2022/10/18 01:28:41;;;;;;;213.52;53.92;;;;;;;13.93;100.00;68316.31;4910464;29;20127;-80
2022/10/18 01:31:18;;;;;;;128.85;47.70;;;;;;;13.89;100.00;68308.53;4910709;29;20043;-76
2022/10/18 01:33:58;;;;;;;131.07;49.15;;;;;;;13.89;100.00;68311.19;4907663;29;20185;-77
2022/10/18 01:36:37;;;;;;;194.82;51.53;;;;;;;13.89;100.00;68311.75;4929633;29;20053;-78
2022/10/18 01:39:08;;;;;;;142.75;51.40;;;;;;;13.91;100.00;68313.47;4902608;29;20048;-79
2022/10/18 01:41:36;;;;;;;152.32;53.40;;;;;;;13.94;100.00;68316.88;4916161;29;20044;-77
2022/10/18 01:44:05;;;;;;;144.57;57.90;;;;;;;13.93;100.00;68315.75;4907112;29;20040;-79
2022/10/18 01:46:32;;;;;;;125.72;52.22;;;;;;;13.95;100.00;68315.34;4906303;29;20052;-75
2022/10/18 01:48:58;;;;;;;127.50;53.47;;;;;;;13.95;100.00;68318.03;4916263;29;20043;-77
2022/10/18 01:51:26;;;;;;;153.73;50.60;;;;;;;13.96;100.00;68325.09;4910112;29;20048;-76
2022/10/18 01:53:52;;;;;;;160.13;50.47;;;;;;;13.96;100.00;68317.06;4909729;29;20183;-78
2022/10/18 01:56:26;;;;;;;156.38;52.42;;;;;;;13.97;100.00;68320.31;4915629;29;20180;-77
2022/10/18 01:59:10;;;;;;;156.93;56.05;;;;;;;13.98;100.00;68316.09;4908469;29;20051;-76
2022/10/18 02:01:51;;;;;;;133.77;54.35;;;;;;;13.95;100.00;68315.34;4926299;29;20043;-77
2022/10/18 02:04:23;;;;;;;129.48;54.10;;;;;;;13.97;100.00;68317.63;4908497;29;20040;-79
2022/10/18 02:06:56;;;;;;;154.40;51.13;;;;;;;13.97;100.00;68320.31;4909127;29;20055;-76
2022/10/18 02:09:40;;;;;;;240.45;53.25;;;;;;;13.93;100.00;68315.75;4921820;29;20056;-78
2022/10/18 02:12:10;;;;;;;123.78;52.45;;;;;;;13.96;100.00;68319.16;4907323;29;20073;-76
2022/10/18 02:14:36;;;;;;;129.77;54.90;;;;;;;;;;4911711;29;20048;-79
2022/10/18 02:17:06;;;;;;;116.32;51.55;;;;;;;13.96;100.00;68316.50;4912779;29;20056;-76
2022/10/18 02:19:42;;;;;;;126.68;50.63;;;;;;;13.96;100.00;68317.06;4911295;29;20103;-78
2022/10/18 02:22:09;;;;;;;131.10;49.22;;;;;;;;;;4908170;29;20040;-74
2022/10/18 02:25:02;;;;;;;140.00;57.33;;;;;;;13.96;100.00;68319.75;4919752;29;20110;-77
2022/10/18 02:27:28;;;;;;;147.25;53.53;;;;;;;13.97;100.00;68320.88;4935494;29;20048;-75
2022/10/18 02:29:53;;;;;;;127.78;50.60;;;;;;;14.02;100.00;68325.44;4916875;29;20103;-79
2022/10/18 02:32:47;;;;;;;122.38;50.47;;;;;;;13.98;100.00;68319.34;4911602;29;20412;-80
2022/10/18 02:35:19;;;;;;;154.18;49.47;;;;;;;13.96;100.00;68316.50;4920099;29;20041;-79
2022/10/18 02:37:47;;;;;;;150.27;56.15;;;;;;;14.03;100.00;68326.56;4914532;29;20051;-77
2022/10/18 02:40:14;;;;;;;117.28;49.90;;;;;;;14.02;100.00;68326.00;4919049;29;20044;-77
2022/10/18 02:42:46;;;;;;;124.45;48.55;;;;;;;14.03;100.00;68327.13;4919097;29;20725;-77
2022/10/18 02:45:12;;;;;;;148.30;50.85;;;;;;;13.96;100.00;68317.06;4919376;29;20115;-79
2022/10/18 02:47:38;;;;;;;108.13;47.80;;;;;;;13.96;100.00;68317.06;4910007;29;20048;-77
2022/10/18 02:50:04;;;;;;;112.30;50.67;;;;;;;14.00;100.00;68321.03;4902908;29;20044;-74
2022/10/18 02:52:29;;;;;;;137.50;53.95;;;;;;;;;;4917574;29;20051;-78
2022/10/18 02:54:54;;;;;;;187.80;69.90;;;;;;;;;;4897125;29;20133;-77
2022/10/18 02:57:19;;;;;;;176.13;60.07;;;;;;;;;;4914395;29;20311;-77
2022/10/18 02:59:45;;;;;;;205.88;64.57;;;;;;;14.17;100.00;68343.06;4908204;29;20340;-77
2022/10/18 03:02:10;;;;;;;227.82;73.60;;;;;;;14.19;100.00;68344.78;4906956;29;20127;-77
2022/10/18 03:04:35;;;;;;;218.70;69.35;;;;;;;14.18;100.00;68344.22;4920554;29;20054;-79
2022/10/18 03:07:01;;;;;;;172.15;55.65;;;;;;;14.12;100.00;68337.38;4918412;29;20048;-76
2022/10/18 03:09:26;;;;;;;157.93;55.85;;;;;;;;;;4911976;29;20036;-79
2022/10/18 03:11:51;;;;;;;167.57;53.67;;;;;;;14.07;100.00;68329.00;4901390;29;20048;-74
2022/10/18 03:14:17;;;;;;;247.05;69.15;;;;;;;14.12;100.00;68337.38;4914051;29;20291;-76
2022/10/18 03:16:42;;;;;;;236.63;68.57;;;;;;;14.11;100.00;68333.00;4909566;29;20048;-79
2022/10/18 03:19:07;;;;;;;295.10;75.03;;;;;;;14.16;100.00;68341.94;4906180;29;20136;-77
2022/10/18 03:21:33;;;;;;;282.20;69.90;;;;;;;14.18;100.00;68344.22;4906658;29;20059;-78
2022/10/18 03:23:58;;;;;;;535.55;91.05;;;;;;;14.21;100.00;68344.94;4916005;29;20052;-77
2022/10/18 03:26:24;;;;;;;470.70;81.72;;;;;;;14.27;100.00;68353.31;4910969;29;20487;-77
2022/10/18 03:28:49;;;;;;;754.13;118.88;;;;;;;14.31;100.00;68357.88;4913013;29;20047;-79
2022/10/18 03:31:15;;;;;;;667.95;91.40;;;;;;;14.27;100.00;68353.31;4911197;29;21048;-77
2022/10/18 03:33:40;;;;;;;664.97;98.93;;;;;;;14.25;100.00;68351.59;4916159;29;20517;-78
2022/10/18 03:36:06;;;;;;;568.05;80.72;;;;;;;;;;4914871;29;20040;-75
2022/10/18 03:38:31;;;;;;;533.40;79.60;;;;;;;14.21;100.00;68342.28;4914046;29;20110;-79
2022/10/18 03:40:57;;;;;;;598.38;91.68;;;;;;;14.22;100.00;68343.41;4909444;29;20103;-77
2022/10/18 03:43:22;;;;;;;745.13;108.80;;;;;;;14.26;100.00;68352.72;4907890;29;20520;-79
2022/10/18 03:45:47;;;;;;;368.95;80.63;;;;;;;14.27;100.00;68353.88;4911022;29;20163;-78
2022/10/18 03:48:13;;;;;;;660.42;105.10;;;;;;;14.25;100.00;68351.03;4909203;29;20056;-77
2022/10/18 03:50:38;;;;;;;453.90;85.68;;;;;;;14.25;100.00;68351.03;4909230;29;20052;-78
2022/10/18 03:53:03;;;;;;;444.88;82.45;;;;;;;14.25;100.00;68351.59;4915314;29;20041;-78
2022/10/18 03:55:29;;;;;;;622.78;103.70;;;;;;;14.26;100.00;68352.72;4916357;29;20453;-77
2022/10/18 03:57:54;;;;;;;426.80;82.95;;;;;;;14.23;100.00;68347.22;4907808;29;20044;-77
2022/10/18 04:00:20;;;;;;;546.65;87.45;;;;;;;14.22;100.00;68348.75;4910251;29;20048;-75
2022/10/18 04:02:45;;;;;;;634.13;105.32;;;;;;;14.26;100.00;68346.81;4910829;29;20051;-77
2022/10/18 04:05:11;;;;;;;680.90;97.75;;;;;;;14.25;100.00;68348.94;4903945;29;20527;-78
2022/10/18 04:07:37;;;;;;;618.88;103.55;;;;;;;14.25;100.00;68351.03;4917928;29;20044;-78
2022/10/18 04:10:02;;;;;;;461.13;93.15;;;;;;;14.25;100.00;68348.34;4913651;29;20546;-78
2022/10/18 04:12:28;;;;;;;622.13;96.82;;;;;;;14.22;100.00;68346.06;4910667;29;20620;-79
2022/10/18 04:14:53;;;;;;;668.05;104.03;;;;;;;14.25;100.00;68351.03;4915069;29;20119;-81
2022/10/18 04:17:18;;;;;;;564.17;80.30;;;;;;;;;;4922271;29;20559;-80
2022/10/18 04:19:44;;;;;;;574.92;99.80;;;;;;;14.22;100.00;68348.75;4916198;29;20170;-78
2022/10/18 04:22:11;;;;;;;640.13;95.15;;;;;;;14.18;100.00;68344.22;4925281;29;20035;-79
2022/10/18 04:24:36;;;;;;;562.40;85.07;;;;;;;14.22;100.00;68348.19;4926838;29;20040;-78
2022/10/18 04:27:03;;;;;;;575.60;84.32;;;;;;;;;;4918807;29;20056;-78
2022/10/18 04:29:28;;;;;;;641.95;100.85;;;;;;;14.23;100.00;68349.31;4917467;29;20127;-75
2022/10/18 04:31:53;;;;;;;524.47;92.57;;;;;;;14.21;100.00;68344.38;4914333;29;20068;-78
2022/10/18 04:34:19;;;;;;;511.52;93.18;;;;;;;14.24;100.00;68345.09;4916544;29;20044;-79
2022/10/18 04:36:44;;;;;;;597.80;101.53;;;;;;;14.22;100.00;68342.84;4917858;29;20055;-78
2022/10/18 04:39:09;;;;;;;482.55;90.55;;;;;;;14.22;100.00;68345.50;4914009;29;20040;-80
2022/10/18 04:41:35;;;;;;;467.10;92.68;;;;;;;14.19;100.00;68345.34;4925044;29;20035;-77
2022/10/18 04:44:00;;;;;;;578.13;95.68;;;;;;;14.19;100.00;68342.09;4908677;29;20095;-81
2022/10/18 04:46:25;;;;;;;485.08;95.32;;;;;;;14.22;100.00;68354.13;4917390;29;20060;-79
2022/10/18 04:48:51;;;;;;;486.35;92.90;;;;;;;14.23;100.00;68341.84;4919631;29;20051;-75
2022/10/18 04:51:16;;;;;;;442.33;82.72;;;;;;;14.19;100.00;68342.66;4915872;29;20044;-77
2022/10/18 04:53:41;;;;;;;607.03;107.47;;;;;;;14.23;100.00;68349.31;4910238;29;20052;-79
2022/10/18 04:56:07;;;;;;;577.85;102.47;;;;;;;14.20;100.00;68345.91;4910414;29;20116;-77
2022/10/18 04:58:33;;;;;;;570.30;102.70;;;;;;;14.21;100.00;68347.03;4913561;29;20051;-77
2022/10/18 05:00:58;;;;;;;589.13;91.78;;;;;;;14.18;100.00;68344.22;4906330;29;20059;-78
2022/10/18 05:03:23;;;;;;;584.65;93.40;;;;;;;14.19;100.00;68342.66;4905424;29;20488;-78
2022/10/18 05:05:49;;;;;;;515.97;86.20;;;;;;;14.21;100.00;68339.00;4914522;29;20130;-77
2022/10/18 05:08:14;;;;;;;508.85;83.40;;;;;;;14.19;100.00;68342.66;4906351;29;20087;-77
2022/10/18 05:10:39;;;;;;;734.92;107.28;;;;;;;14.20;100.00;68341.13;4930198;29;20039;-77
2022/10/18 05:13:05;;;;;;;636.72;92.40;;;;;;;14.19;100.00;68344.78;4921449;29;20051;-80
2022/10/18 05:15:30;;;;;;;603.50;102.47;;;;;;;14.20;100.00;68343.22;4905906;29;20055;-77
2022/10/18 05:17:55;;;;;;;654.90;93.70;;;;;;;14.16;100.00;68341.94;4917221;29;20055;-78
2022/10/18 05:20:21;;;;;;;719.38;102.85;;;;;;;14.17;100.00;68339.81;4911444;29;20769;-79
2022/10/18 05:22:46;;;;;;;725.53;98.75;;;;;;;14.17;100.00;68342.50;4913805;29;20067;-78
2022/10/18 05:25:11;;;;;;;698.22;92.32;;;;;;;14.15;100.00;68340.78;4907353;29;20127;-78
2022/10/18 05:27:37;;;;;;;414.55;73.03;;;;;;;;;;4915565;29;20042;-78
2022/10/18 05:30:03;;;;;;;548.45;77.80;;;;;;;14.12;100.00;68334.69;4925134;29;20044;-78
2022/10/18 05:32:28;;;;;;;578.97;98.70;;;;;;;14.12;100.00;68337.38;4919155;29;20058;-77
2022/10/18 05:34:53;;;;;;;628.97;91.10;;;;;;;14.13;100.00;68337.94;4913225;29;20068;-79
2022/10/18 05:37:20;;;;;;;487.20;78.80;;;;;;;;;;4910948;29;20441;-78
2022/10/18 05:39:45;;;;;;;451.70;85.50;;;;;;;14.08;100.00;68332.25;4922400;29;20098;-77
2022/10/18 05:42:11;;;;;;;675.67;105.78;;;;;;;14.10;100.00;68329.19;4919062;29;20496;-79
2022/10/18 05:44:36;;;;;;;602.22;100.90;;;;;;;14.11;100.00;68330.88;4913282;29;20040;-78
2022/10/18 05:47:01;;;;;;;602.05;100.57;;;;;;;14.10;100.00;68331.88;4912709;29;20048;-78
2022/10/18 05:49:26;;;;;;;582.70;97.45;;;;;;;14.08;100.00;68332.81;4912233;29;20135;-78
2022/10/18 05:51:52;;;;;;;532.15;101.03;;;;;;;14.11;100.00;68336.22;4912364;29;20147;-79
2022/10/18 05:54:19;;;;;;;670.58;108.25;;;;;;;14.05;100.00;68328.84;4912598;29;20528;-80
2022/10/18 05:56:45;;;;;;;615.05;98.63;;;;;;;14.05;100.00;68326.72;4913274;29;20044;-79
2022/10/18 05:59:10;;;;;;;485.98;87.03;;;;;;;14.05;100.00;68328.84;4911572;29;20032;-79
2022/10/18 06:01:39;;;;;;;347.17;85.55;;;;;;;;;;4912355;29;20500;-80
2022/10/18 06:04:05;;;;;;;542.70;91.13;;;;;;;14.03;100.00;68327.13;4914668;29;20048;-77
2022/10/18 06:06:31;;;;;;;527.72;88.70;;;;;;;14.02;100.00;68326.00;4907290;29;20047;-78
2022/10/18 06:08:57;;;;;;;610.42;94.18;;;;;;;14.05;100.00;68328.84;4914295;29;20036;-79
2022/10/18 06:11:23;;;;;;;532.92;85.57;;;;;;;14.04;100.00;68328.28;4913319;29;20720;-79
2022/10/18 06:13:49;;;;;;;690.78;105.05;;;;;;;;;;4912706;29;20036;-79
2022/10/18 06:16:17;;;;;;;579.33;91.97;;;;;;;14.06;100.00;68327.88;4912743;29;20459;-80
2022/10/18 06:18:46;;;;;;;383.83;71.17;;;;;;;14.05;100.00;68329.41;4912523;29;20063;-79
2022/10/18 06:21:11;;;;;;;403.20;77.22;;;;;;;14.01;100.00;68322.16;4908770;29;20042;-75
2022/10/18 06:23:37;;;;;;;317.42;72.80;;;;;;;14.02;100.00;68322.75;4916225;29;20054;-79
2022/10/18 06:26:05;;;;;;;325.88;78.05;;;;;;;14.01;100.00;68324.84;4914833;29;20048;-79
2022/10/18 06:28:33;;;;;;;296.67;71.77;;;;;;;14.00;100.00;68323.72;4916913;29;20043;-78
2022/10/18 06:30:58;;;;;;;286.88;73.82;;;;;;;13.99;100.00;68319.91;4915264;29;20640;-75
2022/10/18 06:33:24;;;;;;;303.75;75.32;;;;;;;13.99;100.00;68320.47;4913990;29;20047;-79
2022/10/18 06:35:58;;;;;;;290.88;74.70;;;;;;;13.97;100.00;68318.19;4912179;29;20044;-78
2022/10/18 06:38:24;;;;;;;253.50;68.57;;;;;;;13.97;100.00;68314.94;4909866;29;20044;-78
2022/10/18 06:40:49;;;;;;;287.77;73.57;;;;;;;13.94;100.00;68317.47;4923482;29;20043;-78
2022/10/18 06:43:14;;;;;;;251.88;69.32;;;;;;;13.94;100.00;68316.88;4918421;29;20465;-77
2022/10/18 06:45:40;;;;;;;258.25;67.32;;;;;;;13.94;100.00;68311.53;4911824;29;20048;-79
2022/10/18 06:48:05;;;;;;;261.42;71.82;;;;;;;13.96;100.00;68319.75;4910856;29;20568;-79
2022/10/18 06:50:31;;;;;;;304.23;76.80;;;;;;;13.95;100.00;68315.34;4911632;29;20621;-78
2022/10/18 06:53:00;;;;;;;292.65;65.07;;;;;;;13.93;100.00;68313.09;4912549;29;20044;-80
2022/10/18 06:55:25;;;;;;;;;;;;;;;13.96;100.00;68316.50;4908204;29;20071;-78
2022/10/18 06:57:52;;;;;;;326.05;77.65;;;;;;;13.89;100.00;68311.19;4918849;29;19950;-79
2022/10/18 07:00:17;;;;;;;358.48;81.63;;;;;;;13.87;100.00;68304.16;4912635;29;20036;-78
2022/10/18 07:02:42;;;;;;;379.27;85.55;;;;;;;13.87;100.00;68303.59;4910702;29;20044;-78
2022/10/18 07:05:09;;;;;;;402.90;85.00;;;;;;;13.87;100.00;68306.25;4909739;29;20040;-79
2022/10/18 07:07:35;;;;;;;368.60;79.22;;;;;;;13.85;100.00;68303.97;4911736;29;20661;-79
2022/10/18 07:10:01;;;;;;;429.98;86.32;;;;;;;13.88;100.00;68310.06;4908915;29;20040;-78
2022/10/18 07:12:26;;;;;;;404.75;85.25;;;;;;;13.85;100.00;68307.22;4910230;29;20051;-78
2022/10/18 07:14:51;;;;;;;504.48;95.70;;;;;;;13.89;100.00;68308.53;4908537;29;20041;-77
2022/10/18 07:17:17;;;;;;;314.15;80.22;;;;;;;13.83;100.00;68304.94;4921722;29;20046;-79
2022/10/18 07:19:42;;;;;;;318.30;77.97;;;;;;;13.81;100.00;68300.00;4911886;29;20389;-78
2022/10/18 07:22:07;;;;;;;348.95;73.45;;;;;;;13.83;100.00;68301.69;4910186;29;20792;-78
2022/10/18 07:24:33;;;;;;;191.77;55.53;;;;;;;;;;4910606;29;20043;-77
2022/10/18 07:26:58;;;;;;;231.57;56.35;;;;;;;13.79;100.00;68299.84;4914981;29;20058;-77
2022/10/18 07:29:23;;;;;;;226.38;57.72;;;;;;;13.75;100.00;68296.41;4910044;29;20068;-79
2022/10/18 07:31:49;;;;;;;246.48;64.30;;;;;;;13.78;100.00;68304.59;4918078;29;20044;-78
2022/10/18 07:34:14;;;;;;;240.48;63.55;;;;;;;13.76;100.00;68294.31;4913667;29;20048;-77
2022/10/18 07:36:40;;;;;;;221.15;57.80;;;;;;;13.79;100.00;68297.16;4916074;29;20043;-79
2022/10/18 07:39:05;;;;;;;192.52;55.15;;;;;;;13.76;100.00;68294.88;4903639;29;20092;-78
2022/10/18 07:41:33;;;;;;;175.93;53.50;;;;;;;13.71;100.00;68291.84;4912079;29;20043;-77
2022/10/18 07:44:00;;;;;;;193.10;56.20;;;;;;;13.70;100.00;68290.72;4915417;29;20043;-76
2022/10/18 07:46:25;;;;;;;160.05;52.53;;;;;;;13.66;100.00;68285.59;4912302;29;20055;-78
2022/10/18 07:48:51;;;;;;;152.90;49.33;;;;;;;13.66;100.00;68283.50;4917451;29;20051;-78
2022/10/18 07:51:17;;;;;;;145.63;47.53;;;;;;;13.66;100.00;68286.16;4917302;29;20052;-79
2022/10/18 07:53:43;;;;;;;144.13;48.70;;;;;;;13.64;100.00;68280.66;4920853;29;20065;-78
2022/10/18 07:56:15;;;;;;;136.68;44.58;;;;;;;13.61;100.00;68274.56;4910808;29;20036;-77
2022/10/18 07:58:44;;;;;;;144.77;47.90;;;;;;;13.56;100.00;68271.56;4918667;29;20060;-80
2022/10/18 08:01:10;;;;;;;141.18;47.17;;;;;;;13.56;100.00;68274.81;4906565;29;20390;-79
2022/10/18 08:03:36;;;;;;;152.85;48.72;;;;;;;13.57;100.00;68275.38;4918967;29;20094;-77
2022/10/18 08:06:02;;;;;;;128.43;45.00;;;;;;;13.56;100.00;68272.13;4913393;29;20036;-78
2022/10/18 08:08:28;;;;;;;136.88;47.00;;;;;;;13.63;100.00;68282.19;4913517;29;20047;-77
2022/10/18 08:10:54;;;;;;;118.32;43.58;;;;;;;13.61;100.00;68277.22;4925658;29;20043;-78
2022/10/18 08:13:20;;;;;;;129.90;47.45;;;;;;;13.65;100.00;68284.47;4914161;29;20449;-79
2022/10/18 08:15:45;;;;;;;125.88;47.22;;;;;;;13.73;100.00;68299.50;4913663;29;20131;-78
2022/10/18 08:18:11;;;;;;;113.18;39.72;;;;;;;13.71;100.00;68291.84;4913316;29;20044;-78
2022/10/18 08:20:42;;;;;;;109.80;37.88;;;;;;;13.73;100.00;68288.78;4912809;29;20067;-78
2022/10/18 08:23:07;;;;;;;91.35;38.65;;;;;;;13.68;100.00;68285.22;4914820;29;20040;-79
2022/10/18 08:25:33;;;;;;;88.32;36.35;;;;;;;13.53;100.00;68271.38;4922086;29;20103;-77
2022/10/18 08:28:00;;;;;;;88.22;36.45;;;;;;;13.46;100.00;68263.41;4915274;29;20055;-78
2022/10/18 08:30:25;;;;;;;94.35;38.33;;;;;;;13.53;100.00;68276.75;4912821;29;20501;-78
2022/10/18 08:32:50;;;;;;;92.78;38.30;;;;;;;13.58;100.00;68277.09;4920193;29;20054;-77
2022/10/18 08:35:16;;;;;;;106.88;38.72;;;;;;;13.76;100.00;68294.88;4912029;29;20095;-78
2022/10/18 08:37:41;;;;;;;97.10;39.70;;;;;;;13.78;100.00;68296.56;4909276;29;20051;-77
2022/10/18 08:40:09;;;;;;;88.95;38.90;;;;;;;13.77;100.00;68292.75;4917295;29;20534;-78
2022/10/18 08:42:48;;;;;;;88.85;37.75;;;;;;;13.72;100.00;68290.34;4914516;29;20496;-78
2022/10/18 08:45:13;;;;;;;;;;;;;;;;;;4917884;29;20099;-78
2022/10/18 08:47:42;;;;;;;76.33;34.90;;;;;;;13.56;100.00;68272.13;4914149;29;20307;-78
2022/10/18 08:50:19;;;;;;;69.07;31.42;;;;;;;13.44;100.00;68253.69;4912664;29;20059;-78
2022/10/18 08:53:00;;;;;;;69.97;33.25;;;;;;;13.56;100.00;68272.13;4912246;29;20079;-77
2022/10/18 08:55:35;;;;;;;73.55;33.63;;;;;;;;;;4923010;29;20577;-80
2022/10/18 08:58:00;;;;;;;66.90;31.50;;;;;;;;;;4906686;29;20095;-76
2022/10/18 09:00:33;;;;;;;62.47;28.92;;;;;;;13.79;100.00;68300.41;4907848;29;20052;-79
2022/10/18 09:03:01;;;;;;;67.20;31.75;;;;;;;13.88;100.00;68305.28;4903028;29;20136;-78
2022/10/18 09:05:45;;;;;;;69.25;30.55;;;;;;;13.96;100.00;68317.06;4907829;29;20100;-78
2022/10/18 09:08:18;;;;;;;68.07;30.70;;;;;;;14.00;100.00;68323.72;4908262;29;20131;-75
2022/10/18 09:11:07;;;;;;;61.92;28.30;;;;;;;14.06;100.00;68325.19;4910099;29;20080;-80
2022/10/18 09:13:45;;;;;;;57.45;30.13;;;;;;;14.14;100.00;68339.66;4930593;29;20040;-80
2022/10/18 09:16:14;;;;;;;55.85;29.52;;;;;;;14.12;100.00;68332.00;4908788;29;20055;-77
2022/10/18 09:19:28;;;;;;;52.10;25.08;;;;;;;14.09;100.00;68330.72;4909068;29;20047;-77
2022/10/18 09:22:00;;;;;;;43.10;23.23;;;;;;;14.09;100.00;68333.38;4914472;29;20050;-78
2022/10/18 09:24:26;;;;;;;35.38;20.75;;;;;;;14.08;100.00;68329.59;4900223;29;20128;-78
2022/10/18 09:26:57;;;;;;;35.88;21.30;;;;;;;14.14;100.00;68339.66;4915456;29;20044;-76
2022/10/18 09:29:31;;;;;;;38.85;20.98;;;;;;;14.21;100.00;68347.63;4906494;29;20104;-78
2022/10/18 09:32:03;;;;;;;45.47;23.38;;;;;;;14.35;100.00;68362.41;4911013;29;20091;-78
2022/10/18 09:34:52;;;;;;;42.30;22.25;;;;;;;14.39;100.00;68367.53;4915120;29;20416;-80
2022/10/18 09:37:19;;;;;;;39.75;22.92;;;;;;;14.53;100.00;68379.66;4911147;29;20043;-80
2022/10/18 09:39:48;;;;;;;35.45;19.10;;;;;;;14.46;100.00;68374.94;4908424;29;20047;-79
2022/10/18 09:42:25;;;;;;;29.60;17.70;;;;;;;14.54;100.00;68384.06;4914316;29;20040;-79
2022/10/18 09:44:53;;;;;;;33.33;19.05;;;;;;;14.55;100.00;68384.63;4906172;29;20047;-78
2022/10/18 09:47:26;;;;;;;33.67;17.43;;;;;;;14.58;100.00;68385.94;4911335;29;20049;-79
2022/10/18 09:49:57;;;;;;;26.67;14.38;;;;;;;14.63;100.00;68394.31;4909930;29;20489;-79
2022/10/18 09:52:30;;;;;;;22.23;12.45;;;;;;;14.79;100.00;68406.03;4913021;29;20189;-79
2022/10/18 09:55:00;;;;;;;24.10;14.20;;;;;;;14.89;100.00;68417.41;4913861;29;20039;-78
2022/10/18 09:57:34;;;;;;;23.25;11.75;;;;;;;14.85;100.00;68412.88;4908837;29;20068;-76
2022/10/18 10:00:02;;;;;;;20.45;11.00;;;;;;;14.99;100.00;68434.16;4908043;29;20050;-78
2022/10/18 10:02:27;;;;;;;25.15;12.65;;;;;;;;;;4911121;29;20040;-78
2022/10/18 10:04:55;;;;;;;24.63;11.02;;;;;;;15.12;100.00;68445.72;4907914;29;20048;-79
2022/10/18 10:07:28;;;;;;;19.02;9.60;;;;;;;;;;4912529;29;20063;-78
2022/10/18 10:10:12;;;;;;;18.73;11.65;;;;;;;15.24;100.00;68462.06;4907961;29;20079;-78
2022/10/18 10:12:39;;;;;;;22.05;11.25;;;;;;;15.33;100.00;68471.75;4924193;29;20044;-78
2022/10/18 10:15:19;;;;;;;14.02;7.18;;;;;;;15.34;100.00;68467.53;4909712;29;20067;-78
2022/10/18 10:17:59;;;;;;;17.42;5.25;;;;;;;15.39;100.00;68475.88;4912809;29;20055;-79
2022/10/18 10:20:31;;;;;;;12.20;6.05;;;;;;;;;;4906303;29;20439;-76
2022/10/18 10:23:06;;;;;;;15.45;6.40;;;;;;;15.56;100.00;68494.69;4898157;29;20489;-78
2022/10/18 10:25:34;;;;;;;10.48;4.15;;;;;;;15.47;96.45;68484.44;4920055;29;20444;-79
2022/10/18 10:28:06;;;;;;;7.45;3.90;;;;;;;15.47;95.30;68485.00;4907804;29;20047;-79
2022/10/18 10:30:34;;;;;;;10.80;4.60;;;;;;;15.53;95.80;68489.16;4907247;29;20094;-78
2022/10/18 10:33:00;;;;;;;11.35;5.07;;;;;;;15.51;96.97;68486.88;4912595;29;20049;-78
2022/10/18 10:35:37;;;;;;;16.42;4.63;;;;;;;15.60;96.36;68499.25;4915195;29;20055;-78
2022/10/18 10:38:04;;;;;;;14.38;4.60;;;;;;;15.77;97.48;68518.06;4914821;29;20043;-78
2022/10/18 10:40:32;;;;;;;10.27;4.38;;;;;;;15.82;94.20;68523.75;4907831;29;20048;-81
2022/10/18 10:43:16;;;;;;;12.93;4.35;;;;;;;15.82;94.64;68526.44;4911267;29;20119;-77
2022/10/18 10:46:05;;;;;;;8.20;4.18;;;;;;;15.93;96.25;68538.97;4886805;29;20059;-78
2022/10/18 10:48:33;;;;;;;9.27;3.90;;;;;;;15.91;92.00;68536.13;4910680;29;20047;-78
2022/10/18 10:51:03;;;;;;;9.70;3.83;;;;;;;15.90;91.25;68532.88;4905685;29;20040;-77
2022/10/18 10:53:34;;;;;;;8.85;2.97;;;;;;;16.04;93.47;68547.69;4912806;29;20272;-78
2022/10/18 10:56:00;;;;;;;9.55;4.10;;;;;;;16.15;91.01;68560.25;4909996;29;20032;-80
2022/10/18 10:58:29;;;;;;;11.40;3.20;;;;;;;16.15;94.06;68557.56;4903547;29;20616;-78
2022/10/18 11:00:56;;;;;;;10.77;3.28;;;;;;;16.38;94.94;68583.19;4904599;29;20044;-78
2022/10/18 11:03:22;;;;;;;13.00;3.63;;;;;;;16.50;94.23;68599.56;4910957;29;20066;-80
2022/10/18 11:05:54;;;;;;;11.85;2.67;;;;;;;16.40;86.79;68591.44;4909389;29;20493;-79
2022/10/18 11:08:37;;;;;;;11.48;2.50;;;;;;;16.46;88.27;68598.25;4905477;29;20652;-78
2022/10/18 11:11:25;;;;;;;8.00;2.22;;;;;;;16.44;83.75;68590.03;4905452;29;20040;-80
2022/10/18 11:14:14;;;;;;;7.37;2.10;;;;;;;16.36;83.39;68586.84;4909781;29;20095;-80
2022/10/18 11:16:57;;;;;;;6.65;2.17;;;;;;;16.41;84.23;68587.19;4906581;29;20367;-79
2022/10/18 11:19:48;;;;;;;8.50;2.45;;;;;;;16.46;87.11;68598.25;4914794;29;20063;-80
2022/10/18 11:22:19;;;;;;;9.48;2.20;;;;;;;;;;4916458;29;20047;-78
2022/10/18 11:24:45;;;;;;;8.57;2.20;;;;;;;16.63;84.94;68614.41;4918782;29;20749;-78
2022/10/18 11:27:41;;;;;;;8.77;2.88;;;;;;;16.68;85.76;68622.19;4918712;29;20116;-78